Time;durP1;ratioP1;P1;durP2;ratioP2;P2;SDS_P1;SDS_P2;PMS_P1;PMS_P2;Temp;Humidity;BMP_temperature;BMP_pressure;BME280_temperature;BME280_humidity;BME280_pressure;Samples;Min_cycle;Max_cycle;Signal;HPM_P1;HPM_P2
2022/10/11 16:46:59;;;;;;;1.20;0.90;;;26.30;59.70;;;;;;5013379;28;20449;-94
2022/10/11 16:53:20;;;;;;;1.47;1.00;;;26.00;59.50;;;;;;5011991;28;20480;-95
2022/10/11 16:59:46;;;;;;;1.10;1.00;;;26.20;59.50;;;;;;5011874;28;20439;-96
2022/10/11 17:29:12;;;;;;;1.03;0.93;;;25.90;58.90;;;;;;4934166;28;20453;-94
2022/10/11 17:31:41;;;;;;;1.63;1.00;;;26.10;59.00;;;;;;4993895;28;20488;-92
2022/10/11 17:34:09;;;;;;;1.10;0.90;;;26.00;58.50;;;;;;4994104;28;20479;-94
2022/10/11 17:36:45;;;;;;;1.90;1.20;;;26.00;58.00;;;;;;5009293;28;20447;-92
2022/10/11 17:39:15;;;;;;;1.93;1.00;;;26.00;58.00;;;;;;5015624;28;20526;-92
2022/10/11 17:41:46;;;;;;;1.03;0.93;;;26.00;58.20;;;;;;5009018;28;20463;-88
2022/10/11 17:44:16;;;;;;;1.47;1.10;;;26.00;58.40;;;;;;5006196;28;21265;-93
2022/10/11 17:46:42;;;;;;;2.17;1.50;;;26.00;58.50;;;;;;5007915;28;20494;-87
2022/10/11 17:49:11;;;;;;;1.33;1.10;;;26.10;58.40;;;;;;5012920;28;20439;-94
2022/10/11 17:51:39;;;;;;;1.20;1.00;;;26.10;58.40;;;;;;5011776;28;20488;-89
2022/10/11 17:54:11;;;;;;;1.10;0.90;;;26.10;58.50;;;;;;5013351;28;20518;-94
2022/10/11 17:56:38;;;;;;;1.43;1.33;;;26.10;58.60;;;;;;5013570;28;20965;-91
2022/10/11 17:59:07;;;;;;;1.30;1.07;;;26.00;58.50;;;;;;5006687;28;20436;-93
2022/10/11 18:01:34;;;;;;;1.53;1.00;;;26.10;58.60;;;;;;5011772;28;20465;-92
2022/10/11 18:04:03;;;;;;;2.40;1.50;;;26.10;58.60;;;;;;5012966;28;20457;-88
2022/10/11 18:06:32;;;;;;;1.27;1.10;;;26.00;58.60;;;;;;5013049;28;20490;-88
2022/10/11 18:09:01;;;;;;;4.93;1.00;;;26.10;58.60;;;;;;5013098;28;20968;-92
2022/10/11 18:11:28;;;;;;;1.57;1.40;;;26.00;58.50;;;;;;5012895;28;20513;-88
2022/10/11 18:13:56;;;;;;;1.20;1.10;;;26.10;58.50;;;;;;5013306;28;20463;-86
2022/10/11 18:16:26;;;;;;;1.80;1.10;;;26.00;58.50;;;;;;5013990;28;20449;-87
2022/10/11 18:18:56;;;;;;;2.20;1.50;;;26.00;58.50;;;;;;5014105;28;20501;-87
2022/10/11 18:21:23;;;;;;;1.83;1.70;;;26.00;58.50;;;;;;5016654;28;20478;-88
2022/10/11 18:23:50;;;;;;;1.20;1.10;;;26.00;59.10;;;;;;5016935;28;20440;-88
2022/10/11 18:26:20;;;;;;;1.33;1.20;;;26.00;58.50;;;;;;5015478;28;20521;-88
2022/10/11 18:28:48;;;;;;;2.40;1.63;;;26.00;58.40;;;;;;5016391;28;20443;-92
2022/10/11 18:31:17;;;;;;;2.30;1.23;;;26.00;58.40;;;;;;5017307;28;20485;-93
2022/10/11 18:34:19;;;;;;;1.17;1.07;;;26.00;58.40;;;;;;5019046;28;20533;-95
2022/10/11 18:36:48;;;;;;;1.87;1.50;;;26.10;58.40;;;;;;5013197;28;20443;-90
2022/10/11 18:39:15;;;;;;;1.93;1.27;;;26.00;58.40;;;;;;5043024;23;20977;-88
2022/10/11 18:41:43;;;;;;;3.63;1.40;;;26.00;58.50;;;;;;5050671;28;20447;-89
2022/10/11 18:44:13;;;;;;;2.63;1.43;;;26.00;58.60;;;;;;5042811;28;20462;-87
2022/10/11 18:46:39;;;;;;;1.50;1.37;;;26.00;58.50;;;;;;5035218;28;20445;-86
2022/10/11 18:49:07;;;;;;;1.33;1.23;;;26.00;58.50;;;;;;5038117;28;20435;-86
2022/10/11 18:51:37;;;;;;;1.43;1.20;;;26.00;58.60;;;;;;5035072;28;20821;-86
2022/10/11 18:54:05;;;;;;;1.60;1.10;;;26.00;58.70;;;;;;5035771;28;20456;-87
2022/10/11 18:56:35;;;;;;;1.10;0.93;;;26.00;58.70;;;;;;5037847;28;20445;-85
2022/10/11 18:59:03;;;;;;;3.20;0.97;;;26.00;58.80;;;;;;5036105;28;20495;-87
2022/10/11 19:01:31;;;;;;;1.50;1.40;;;26.00;58.80;;;;;;5033611;28;20454;-88
2022/10/11 19:04:00;;;;;;;2.37;1.20;;;26.00;58.80;;;;;;5034550;28;20442;-88
2022/10/11 19:06:29;;;;;;;1.60;1.30;;;26.00;58.80;;;;;;5035289;28;20781;-85
2022/10/11 19:09:01;;;;;;;2.37;1.60;;;26.00;58.90;;;;;;5016337;28;20435;-85
2022/10/11 19:11:28;;;;;;;1.60;1.23;;;26.00;58.80;;;;;;5034998;28;20470;-94
2022/10/11 19:13:56;;;;;;;1.17;1.00;;;26.00;58.70;;;;;;5036083;28;20466;-84
2022/10/11 19:16:23;;;;;;;1.33;1.07;;;26.00;58.50;;;;;;5027376;28;20446;-84
2022/10/11 19:18:51;;;;;;;1.30;1.20;;;26.00;58.90;;;;;;5015633;28;20449;-84
2022/10/11 19:21:18;;;;;;;1.63;1.53;;;26.00;59.00;;;;;;5023858;28;20474;-83
2022/10/11 19:23:46;;;;;;;2.67;1.70;;;26.00;58.80;;;;;;5035209;28;20438;-83
2022/10/11 19:26:18;;;;;;;4.17;2.43;;;26.00;58.90;;;;;;5035240;28;20441;-84
2022/10/11 19:28:45;;;;;;;1.87;1.67;;;26.00;58.90;;;;;;5035230;28;20438;-83
2022/10/11 19:31:15;;;;;;;4.33;2.13;;;26.00;58.90;;;;;;5034214;28;20443;-82
2022/10/11 19:33:43;;;;;;;2.70;2.10;;;26.00;59.50;;;;;;5035494;28;20469;-83
2022/10/11 19:36:12;;;;;;;3.60;2.23;;;26.00;59.00;;;;;;5035430;28;20450;-83
2022/10/11 19:38:39;;;;;;;1.70;1.60;;;26.00;58.80;;;;;;5035060;28;20507;-82
2022/10/11 19:41:06;;;;;;;1.93;1.83;;;26.00;58.90;;;;;;5035406;28;20467;-83
2022/10/11 19:43:34;;;;;;;2.03;1.83;;;26.00;58.90;;;;;;5035469;28;20454;-83
2022/10/11 19:46:01;;;;;;;2.30;2.10;;;26.00;59.00;;;;;;5035247;28;20452;-83
2022/10/11 19:48:29;;;;;;;2.60;2.40;;;26.00;58.90;;;;;;5035292;28;20476;-82
2022/10/11 19:51:02;;;;;;;2.20;2.00;;;26.00;58.80;;;;;;5035090;28;20452;-83
2022/10/11 19:53:29;;;;;;;3.47;2.07;;;26.00;58.90;;;;;;5035163;28;20491;-82
2022/10/11 19:55:55;;;;;;;2.40;2.20;;;26.00;58.90;;;;;;5035112;28;20449;-82
2022/10/11 19:58:22;;;;;;;2.50;2.30;;;26.00;58.80;;;;;;5035051;28;20442;-81
2022/10/11 20:00:59;;;;;;;1.97;1.87;;;26.00;58.90;;;;;;5035023;28;20452;-83
2022/10/11 20:03:26;;;;;;;2.53;2.33;;;26.00;58.80;;;;;;5035030;28;20451;-82
2022/10/11 20:05:53;;;;;;;2.00;1.90;;;25.90;58.70;;;;;;5034915;28;20437;-82
2022/10/11 20:08:20;;;;;;;2.33;1.80;;;25.90;58.70;;;;;;5034898;28;20445;-82
2022/10/11 20:10:47;;;;;;;1.90;1.80;;;25.90;58.80;;;;;;5034594;28;20459;-82
2022/10/11 20:13:14;;;;;;;1.87;1.77;;;25.90;58.70;;;;;;5034399;28;20493;-82
2022/10/11 20:15:40;;;;;;;1.63;1.53;;;25.90;58.60;;;;;;5034719;28;20445;-82
2022/10/11 20:18:08;;;;;;;4.90;1.97;;;25.90;58.60;;;;;;5034529;28;20438;-81
2022/10/11 20:20:35;;;;;;;2.77;2.20;;;25.90;58.50;;;;;;5034642;28;20441;-83
2022/10/11 20:23:02;;;;;;;1.93;1.73;;;25.90;58.60;;;;;;5034199;28;20444;-81
2022/10/11 20:25:29;;;;;;;1.73;1.60;;;25.90;58.50;;;;;;5034560;28;20806;-82
2022/10/11 20:27:55;;;;;;;2.20;2.00;;;25.90;58.50;;;;;;5034652;28;20448;-82
2022/10/11 20:30:22;;;;;;;1.67;1.57;;;25.90;58.50;;;;;;5034388;28;20441;-83
2022/10/11 20:32:49;;;;;;;2.10;2.00;;;25.90;58.60;;;;;;5034207;28;20493;-82
2022/10/11 20:35:17;;;;;;;2.30;2.10;;;25.90;58.50;;;;;;5034265;28;20438;-81
2022/10/11 20:37:44;;;;;;;2.57;2.10;;;25.90;58.60;;;;;;5034346;28;20955;-82
2022/10/11 20:40:12;;;;;;;1.70;1.60;;;25.90;58.60;;;;;;5033971;28;20474;-83
2022/10/11 20:42:39;;;;;;;1.70;1.60;;;25.90;58.70;;;;;;5033585;28;20448;-90
2022/10/11 20:45:07;;;;;;;2.23;2.07;;;25.90;58.60;;;;;;5033759;28;20780;-85
2022/10/11 20:47:34;;;;;;;2.30;2.10;;;25.90;58.50;;;;;;5034271;28;20525;-82
2022/10/11 20:50:01;;;;;;;2.00;1.77;;;25.90;58.70;;;;;;5034373;28;20442;-82
2022/10/11 20:52:29;;;;;;;1.60;1.50;;;25.90;58.50;;;;;;5034041;28;20567;-86
2022/10/11 20:54:56;;;;;;;1.90;1.53;;;25.90;58.60;;;;;;5034148;28;20449;-83
2022/10/11 20:57:23;;;;;;;1.60;1.50;;;25.90;58.70;;;;;;5033949;28;20951;-83
2022/10/11 20:59:50;;;;;;;2.20;2.00;;;25.90;58.80;;;;;;5034159;28;20533;-83
2022/10/11 21:02:16;;;;;;;4.03;2.57;;;25.90;58.70;;;;;;5034050;28;20971;-83
2022/10/11 21:04:44;;;;;;;1.77;1.67;;;25.80;58.60;;;;;;5033994;28;20445;-88
2022/10/11 21:07:11;;;;;;;1.70;1.60;;;25.80;58.50;;;;;;5034013;28;20437;-84
2022/10/11 21:09:39;;;;;;;4.67;2.10;;;25.80;58.60;;;;;;5033633;28;20438;-84
2022/10/11 21:12:06;;;;;;;2.00;1.90;;;25.80;58.60;;;;;;5033650;28;20484;-87
2022/10/11 21:14:33;;;;;;;2.23;2.03;;;25.80;58.60;;;;;;5033842;28;20468;-88
2022/10/11 21:16:59;;;;;;;2.57;2.30;;;25.80;58.50;;;;;;5033869;28;20441;-84
2022/10/11 21:19:26;;;;;;;2.27;2.00;;;25.80;58.50;;;;;;5033496;28;20463;-84
2022/10/11 21:21:53;;;;;;;1.60;1.50;;;25.80;58.30;;;;;;5033669;28;20445;-84
2022/10/11 21:24:20;;;;;;;2.10;1.90;;;25.80;58.40;;;;;;5033711;28;20549;-84
2022/10/11 21:26:48;;;;;;;2.43;1.70;;;25.80;58.40;;;;;;5033682;28;20452;-88
2022/10/11 21:29:15;;;;;;;2.20;2.10;;;25.90;58.50;;;;;;5033364;28;20445;-88
2022/10/11 21:31:42;;;;;;;1.70;1.60;;;25.80;58.30;;;;;;5033636;28;20803;-84
2022/10/11 21:34:08;;;;;;;1.60;1.50;;;25.80;58.20;;;;;;5033452;28;20487;-84
2022/10/11 21:36:35;;;;;;;2.60;2.40;;;25.80;58.90;;;;;;5033473;28;20855;-84
2022/10/11 21:39:02;;;;;;;1.80;1.70;;;25.80;58.30;;;;;;5033218;28;20481;-89
2022/10/11 21:41:29;;;;;;;2.13;1.80;;;25.80;58.30;;;;;;5033692;28;20438;-83
2022/10/11 21:43:58;;;;;;;1.77;1.67;;;25.80;58.30;;;;;;5033280;28;20531;-84
2022/10/11 21:46:26;;;;;;;2.10;2.00;;;25.80;58.40;;;;;;5033527;28;20441;-84
2022/10/11 21:48:53;;;;;;;2.30;2.10;;;25.80;58.30;;;;;;5033588;28;20442;-89
2022/10/11 21:51:23;;;;;;;1.70;1.60;;;25.80;58.20;;;;;;5033517;28;20464;-84
2022/10/11 21:53:50;;;;;;;1.80;1.70;;;25.80;58.30;;;;;;5034266;28;20491;-84
2022/10/11 21:56:17;;;;;;;2.50;2.30;;;25.80;58.30;;;;;;5037574;28;20814;-83
2022/10/11 21:58:45;;;;;;;1.83;1.73;;;25.80;58.20;;;;;;5037475;28;20464;-84
2022/10/11 22:01:14;;;;;;;1.80;1.70;;;25.80;58.30;;;;;;5037267;28;20448;-85
2022/10/11 22:03:40;;;;;;;2.23;2.03;;;25.80;58.20;;;;;;5037014;28;20443;-84
2022/10/11 22:06:07;;;;;;;2.00;1.90;;;25.80;58.20;;;;;;5037346;28;20450;-84
2022/10/11 22:08:34;;;;;;;2.20;2.07;;;25.80;58.10;;;;;;5037171;28;20448;-88
2022/10/11 22:11:01;;;;;;;2.03;1.93;;;25.70;58.00;;;;;;5037350;28;20449;-83
2022/10/11 22:13:30;;;;;;;2.03;1.90;;;25.70;58.10;;;;;;5037056;28;20491;-87
2022/10/11 22:15:57;;;;;;;2.30;2.20;;;25.80;58.20;;;;;;5037068;28;20464;-85
2022/10/11 22:18:25;;;;;;;2.43;2.27;;;25.70;58.10;;;;;;5037095;28;20442;-84
2022/10/11 22:20:52;;;;;;;2.90;2.40;;;25.70;58.10;;;;;;5037124;28;20448;-88
2022/10/11 22:23:19;;;;;;;2.77;2.57;;;25.70;58.10;;;;;;5037191;28;20438;-83
2022/10/11 22:25:46;;;;;;;1.90;1.80;;;25.70;58.00;;;;;;5037023;28;20432;-84
2022/10/11 22:28:13;;;;;;;2.07;1.97;;;25.70;58.00;;;;;;5036868;28;20445;-84
2022/10/11 22:30:40;;;;;;;2.30;2.20;;;25.70;58.00;;;;;;5036896;28;20438;-84
2022/10/11 22:33:07;;;;;;;2.03;1.93;;;25.90;58.00;;;;;;5037227;28;20532;-84
2022/10/11 22:35:36;;;;;;;2.30;2.10;;;25.70;58.20;;;;;;5036727;28;20451;-88
2022/10/11 22:38:04;;;;;;;2.13;2.03;;;25.80;58.00;;;;;;5036632;28;20500;-88
2022/10/11 22:40:31;;;;;;;2.63;2.10;;;25.70;57.90;;;;;;5036538;28;20534;-89
2022/10/11 22:42:57;;;;;;;4.20;2.77;;;25.70;57.90;;;;;;5036575;28;20469;-84
2022/10/11 22:45:24;;;;;;;2.37;2.20;;;25.70;57.90;;;;;;5036583;28;20441;-89
2022/10/11 22:47:51;;;;;;;2.73;2.53;;;25.70;57.90;;;;;;5036684;28;20810;-84
2022/10/11 22:50:18;;;;;;;2.57;2.37;;;25.70;57.90;;;;;;5036323;28;20456;-84
2022/10/11 22:52:46;;;;;;;2.20;2.10;;;25.70;57.90;;;;;;5036253;28;20488;-84
2022/10/11 22:55:13;;;;;;;2.43;2.23;;;25.70;57.90;;;;;;5036446;28;20445;-84
2022/10/11 22:57:40;;;;;;;2.20;2.10;;;25.70;57.90;;;;;;5036579;28;20847;-84
2022/10/11 23:00:08;;;;;;;2.60;2.40;;;25.70;57.90;;;;;;5036398;28;20805;-84
2022/10/11 23:02:35;;;;;;;2.37;2.27;;;25.60;57.70;;;;;;5036125;28;20442;-88
2022/10/11 23:05:02;;;;;;;2.40;2.20;;;25.60;57.80;;;;;;5036259;28;20452;-84
2022/10/11 23:07:28;;;;;;;2.60;2.30;;;25.80;58.20;;;;;;5036068;28;20442;-87
2022/10/11 23:09:56;;;;;;;2.37;2.17;;;25.60;57.80;;;;;;5036057;28;20454;-84
2022/10/11 23:12:23;;;;;;;2.33;2.20;;;25.60;57.80;;;;;;5036245;28;20450;-88
2022/10/11 23:14:50;;;;;;;2.00;1.90;;;25.60;57.80;;;;;;5035972;28;20466;-83
2022/10/11 23:17:17;;;;;;;2.20;2.00;;;25.60;57.70;;;;;;5036094;28;20446;-85
2022/10/11 23:19:44;;;;;;;1.93;1.83;;;25.60;57.70;;;;;;5035836;28;20794;-84
2022/10/11 23:22:10;;;;;;;2.40;2.20;;;25.60;57.70;;;;;;5035777;28;20445;-84
2022/10/11 23:24:37;;;;;;;2.40;2.20;;;25.60;57.70;;;;;;5035820;28;20457;-84
2022/10/11 23:27:05;;;;;;;2.77;2.20;;;25.60;57.80;;;;;;5035972;28;20446;-87
2022/10/11 23:29:32;;;;;;;2.07;1.97;;;25.60;57.80;;;;;;5035898;28;20442;-88
2022/10/11 23:31:59;;;;;;;2.33;2.13;;;25.60;57.70;;;;;;5035679;28;20452;-87
2022/10/11 23:34:26;;;;;;;2.47;2.27;;;25.60;57.70;;;;;;5035738;28;20503;-84
2022/10/11 23:36:53;;;;;;;2.30;2.10;;;25.60;57.70;;;;;;5035845;28;20440;-83
2022/10/11 23:39:19;;;;;;;2.20;2.00;;;25.50;57.60;;;;;;5035111;28;20480;-86
2022/10/11 23:41:46;;;;;;;2.40;2.20;;;25.60;57.80;;;;;;5035842;28;20445;-84
2022/10/11 23:44:14;;;;;;;1.90;1.80;;;25.60;57.70;;;;;;5035468;28;20465;-83
2022/10/11 23:46:41;;;;;;;2.50;2.30;;;25.60;57.70;;;;;;5035584;28;20453;-86
2022/10/11 23:49:08;;;;;;;2.77;2.57;;;25.50;57.60;;;;;;5035809;28;20813;-84
2022/10/11 23:51:35;;;;;;;2.07;1.97;;;25.80;57.70;;;;;;5035529;28;20791;-89
2022/10/11 23:54:01;;;;;;;2.17;2.07;;;25.50;57.50;;;;;;5035382;28;20584;-83
2022/10/11 23:56:28;;;;;;;1.77;1.67;;;25.50;57.50;;;;;;5035609;28;20441;-83
2022/10/11 23:58:55;;;;;;;2.70;2.50;;;25.50;57.50;;;;;;5035298;28;20453;-87
